createdAt,value
2023-04-29T00:00:46.162Z,2.88
2023-04-29T00:03:13.126Z,3.33
2023-04-29T00:05:40.459Z,2.60
2023-04-29T00:08:08.738Z,3.53
2023-04-29T00:10:35.633Z,3.40
2023-04-29T00:13:02.469Z,3.63
2023-04-29T00:15:29.453Z,3.00
2023-04-29T00:17:56.337Z,3.65
2023-04-29T00:20:23.233Z,3.42
2023-04-29T00:22:50.061Z,3.55
2023-04-29T00:25:17.062Z,3.30
2023-04-29T00:27:43.895Z,3.20
2023-04-29T00:30:11.373Z,3.05
2023-04-29T00:32:38.266Z,2.45
2023-04-29T00:35:05.679Z,2.42
2023-04-29T00:37:33.012Z,2.63
2023-04-29T00:39:59.928Z,2.17
2023-04-29T00:42:28.065Z,2.13
2023-04-29T00:44:55.864Z,2.97
2023-04-29T00:47:23.280Z,2.10
2023-04-29T00:49:50.795Z,2.17
2023-04-29T00:52:19.047Z,2.60
2023-04-29T00:54:45.984Z,2.65
2023-04-29T00:57:13.464Z,1.95
2023-04-29T00:59:41.065Z,1.92
2023-04-29T01:02:07.955Z,2.95
2023-04-29T01:04:35.106Z,2.10
2023-04-29T01:07:18.443Z,3.00
2023-04-29T01:10:07.226Z,2.17
2023-04-29T01:12:45.601Z,3.65
2023-04-29T01:15:25.397Z,2.80
2023-04-29T01:18:06.058Z,2.25
2023-04-29T01:20:34.228Z,2.92
2023-04-29T01:23:01.212Z,2.75
2023-04-29T01:25:28.884Z,2.78
2023-04-29T01:28:43.325Z,2.22
2023-04-29T01:31:36.769Z,2.20
2023-04-29T01:34:22.159Z,1.67
2023-04-29T01:37:04.494Z,2.10
2023-04-29T01:40:00.784Z,2.63
2023-04-29T01:42:43.333Z,2.38
2023-04-29T01:45:17.288Z,2.33
2023-04-29T01:47:46.519Z,3.17
2023-04-29T01:50:14.115Z,3.17
2023-04-29T01:52:41.311Z,3.00
2023-04-29T01:55:09.602Z,3.10
2023-04-29T01:57:47.574Z,3.55
2023-04-29T02:00:27.563Z,2.97
2023-04-29T02:02:54.978Z,3.22
2023-04-29T02:05:33.889Z,2.42
2023-04-29T02:08:01.891Z,3.75
2023-04-29T02:10:29.927Z,2.58
2023-04-29T02:15:39.512Z,3.50
2023-04-29T02:18:06.311Z,3.45
2023-04-29T02:20:33.260Z,2.72
2023-04-29T02:23:00.205Z,3.45
2023-04-29T02:25:27.073Z,2.78
2023-04-29T02:27:54.007Z,2.95
2023-04-29T02:30:21.328Z,3.30
2023-04-29T02:32:48.153Z,3.22
2023-04-29T02:35:15.105Z,3.90
2023-04-29T02:37:41.940Z,3.85
2023-04-29T02:40:09.398Z,3.10
2023-04-29T02:42:36.222Z,5.15
2023-04-29T02:45:03.964Z,2.80
2023-04-29T02:47:30.905Z,2.80
2023-04-29T02:49:57.788Z,2.50
2023-04-29T02:52:24.549Z,2.72
2023-04-29T02:54:51.416Z,3.05
2023-04-29T02:57:18.567Z,3.70
2023-04-29T02:59:45.469Z,3.35
2023-04-29T03:02:12.765Z,4.18
2023-04-29T03:04:40.263Z,3.55
2023-04-29T03:07:08.080Z,2.72
2023-04-29T03:09:35.765Z,4.15
2023-04-29T03:12:03.060Z,4.30
2023-04-29T03:14:30.551Z,3.85
2023-04-29T03:16:58.718Z,3.95
2023-04-29T03:19:25.851Z,2.92
2023-04-29T03:21:53.995Z,3.05
2023-04-29T03:24:22.130Z,3.88
2023-04-29T03:26:49.053Z,3.53
2023-04-29T03:29:15.932Z,4.15
2023-04-29T03:31:43.005Z,3.38
2023-04-29T03:34:10.586Z,3.17
2023-04-29T03:36:41.284Z,3.83
2023-04-29T03:39:08.468Z,3.38
2023-04-29T03:41:36.249Z,3.53
2023-04-29T03:44:03.131Z,3.58
2023-04-29T03:46:30.337Z,3.33
2023-04-29T03:48:57.881Z,3.58
2023-04-29T03:51:25.452Z,3.17
2023-04-29T03:53:57.997Z,4.07
2023-04-29T03:56:25.786Z,3.83
2023-04-29T03:58:53.281Z,3.38
2023-04-29T04:01:22.010Z,3.55
2023-04-29T04:03:49.192Z,3.80
2023-04-29T04:06:16.701Z,4.13
2023-04-29T04:08:43.961Z,4.82
2023-04-29T04:11:17.678Z,3.42
2023-04-29T04:13:49.960Z,3.85
2023-04-29T04:16:17.377Z,3.15
2023-04-29T04:18:44.150Z,4.50
2023-04-29T04:21:12.223Z,4.75
2023-04-29T04:23:42.490Z,4.55
2023-04-29T04:26:11.937Z,3.42
2023-04-29T04:29:01.244Z,3.50
2023-04-29T04:31:34.643Z,2.53
2023-04-29T04:34:01.606Z,2.85
2023-04-29T04:36:32.737Z,3.88
2023-04-29T04:38:59.794Z,2.58
2023-04-29T04:41:26.699Z,2.90
2023-04-29T04:43:54.010Z,2.47
2023-04-29T04:46:30.057Z,2.95
2023-04-29T04:49:04.289Z,2.70
2023-04-29T04:51:33.574Z,2.33
2023-04-29T04:54:00.563Z,2.47
2023-04-29T04:56:29.570Z,2.10
2023-04-29T04:58:56.555Z,2.97
2023-04-29T05:01:23.418Z,2.72
2023-04-29T05:03:50.510Z,2.72
2023-04-29T05:06:17.665Z,2.25
2023-04-29T05:08:47.071Z,3.10
2023-04-29T05:11:22.244Z,2.00
2023-04-29T05:14:05.123Z,2.50
2023-04-29T05:16:32.087Z,2.40
2023-04-29T05:18:59.021Z,1.90
2023-04-29T05:21:31.627Z,2.72
2023-04-29T05:23:59.077Z,3.17
2023-04-29T05:26:26.688Z,2.90
2023-04-29T05:28:56.929Z,1.88
2023-04-29T05:31:24.517Z,2.90
2023-04-29T05:33:51.452Z,2.22
2023-04-29T05:36:18.224Z,2.72
2023-04-29T05:38:45.487Z,3.08
2023-04-29T05:41:14.148Z,1.85
2023-04-29T05:43:45.801Z,2.60
2023-04-29T05:46:14.486Z,2.28
2023-04-29T05:48:41.359Z,2.08
2023-04-29T05:51:09.881Z,2.13
2023-04-29T05:53:38.340Z,1.80
2023-04-29T05:56:08.235Z,2.20
2023-04-29T05:58:36.134Z,2.08
2023-04-29T06:01:03.295Z,1.90
2023-04-29T06:03:31.545Z,2.33
2023-04-29T06:06:17.807Z,2.72
2023-04-29T06:09:01.388Z,1.75
2023-04-29T06:11:30.265Z,1.98
2023-04-29T06:13:57.518Z,1.85
2023-04-29T06:16:24.494Z,1.77
2023-04-29T06:18:52.207Z,2.22
2023-04-29T06:21:19.020Z,2.35
2023-04-29T06:23:46.235Z,1.85
2023-04-29T06:26:17.491Z,1.33
2023-04-29T06:28:44.889Z,2.15
2023-04-29T06:31:12.661Z,1.67
2023-04-29T06:33:39.954Z,1.20
2023-04-29T06:36:06.827Z,1.40
2023-04-29T06:38:59.916Z,1.30
2023-04-29T06:41:27.345Z,1.30
2023-04-29T06:44:23.133Z,1.40
2023-04-29T06:47:21.464Z,1.40
2023-04-29T06:49:55.425Z,1.42
2023-04-29T06:52:22.497Z,1.30
2023-04-29T06:54:49.351Z,1.48
2023-04-29T06:57:18.520Z,1.90
2023-04-29T06:59:46.353Z,1.42
2023-04-29T07:02:13.732Z,1.55
2023-04-29T07:04:41.046Z,1.70
2023-04-29T07:07:07.956Z,1.73
2023-04-29T07:09:34.750Z,1.98
2023-04-29T07:12:02.750Z,1.35
2023-04-29T07:14:29.734Z,1.38
2023-04-29T07:16:56.671Z,1.35
2023-04-29T07:19:23.736Z,1.00
2023-04-29T07:21:50.523Z,1.10
2023-04-29T07:24:17.362Z,1.05
2023-04-29T07:26:46.872Z,1.00
2023-04-29T07:29:16.217Z,1.15
2023-04-29T07:31:43.013Z,0.98
2023-04-29T07:34:10.022Z,0.65
2023-04-29T07:36:36.837Z,0.73
2023-04-29T07:39:03.856Z,1.10
2023-04-29T07:41:31.699Z,1.35
2023-04-29T07:43:58.958Z,1.15
2023-04-29T07:46:25.785Z,1.25
2023-04-29T07:48:53.156Z,0.95
2023-04-29T07:51:20.149Z,0.88
2023-04-29T07:53:46.974Z,0.90
2023-04-29T07:56:13.819Z,1.02
2023-04-29T07:58:40.916Z,0.77
2023-04-29T08:01:12.301Z,1.13
2023-04-29T08:03:41.781Z,1.08
2023-04-29T08:06:09.756Z,1.07
2023-04-29T08:08:36.754Z,1.00
2023-04-29T08:11:03.928Z,1.08
2023-04-29T08:13:30.893Z,1.05
2023-04-29T08:15:57.780Z,1.48
2023-04-29T08:18:24.681Z,1.60
2023-04-29T08:20:51.624Z,1.20
2023-04-29T08:23:18.489Z,1.55
2023-04-29T08:25:46.089Z,1.50
2023-04-29T08:28:13.234Z,1.83
2023-04-29T08:30:41.583Z,1.30
2023-04-29T08:33:09.199Z,1.48
2023-04-29T08:35:39.124Z,1.55
2023-04-29T08:38:06.905Z,1.13
2023-04-29T08:40:51.907Z,1.42
2023-04-29T08:43:20.464Z,1.60
2023-04-29T08:45:48.741Z,1.55
2023-04-29T08:48:19.853Z,1.83
2023-04-29T08:50:46.886Z,1.30
2023-04-29T08:53:14.696Z,1.60
2023-04-29T08:55:48.263Z,1.92
2023-04-29T08:58:16.380Z,1.50
2023-04-29T09:00:44.943Z,2.78
2023-04-29T09:03:17.034Z,2.50
2023-04-29T09:05:49.183Z,1.83
2023-04-29T09:08:17.065Z,1.52
2023-04-29T09:10:43.866Z,2.08
2023-04-29T09:13:26.996Z,2.10
2023-04-29T09:15:54.480Z,2.30
2023-04-29T09:18:50.458Z,1.88
2023-04-29T09:21:23.042Z,2.20
2023-04-29T09:23:58.511Z,2.03
2023-04-29T09:26:26.071Z,2.47
2023-04-29T09:29:16.161Z,1.92
2023-04-29T09:31:43.271Z,2.33
2023-04-29T09:34:14.260Z,2.35
2023-04-29T09:36:46.803Z,1.80
2023-04-29T09:39:16.278Z,1.80
2023-04-29T09:41:55.427Z,2.50
2023-04-29T09:44:23.449Z,1.52
2023-04-29T09:47:04.124Z,2.47
2023-04-29T09:49:41.072Z,2.72
2023-04-29T09:52:18.339Z,2.08
2023-04-29T09:54:46.181Z,2.08
2023-04-29T09:57:16.674Z,2.75
2023-04-29T10:02:20.956Z,3.30
2023-04-29T10:04:54.868Z,3.72
2023-04-29T10:07:22.726Z,2.42
2023-04-29T10:09:50.554Z,1.88
2023-04-29T10:12:20.527Z,2.25
2023-04-29T10:14:59.508Z,2.63
2023-04-29T10:17:42.430Z,3.38
2023-04-29T10:20:13.944Z,2.47
2023-04-29T10:22:47.231Z,2.15
2023-04-29T10:25:18.699Z,2.83
2023-04-29T10:27:46.601Z,2.53
2023-04-29T10:30:18.480Z,2.50
2023-04-29T10:32:51.631Z,2.08
2023-04-29T10:35:22.272Z,2.67
2023-04-29T10:37:49.867Z,2.58
2023-04-29T10:40:28.024Z,2.08
2023-04-29T10:42:55.704Z,2.38
2023-04-29T10:45:27.477Z,2.58
2023-04-29T10:48:05.654Z,2.70
2023-04-29T10:50:34.052Z,2.10
2023-04-29T10:53:05.427Z,2.30
2023-04-29T10:55:35.868Z,2.65
2023-04-29T11:00:34.860Z,2.80
2023-04-29T11:03:05.691Z,2.03
2023-04-29T11:05:37.119Z,2.60
2023-04-29T11:08:12.653Z,2.63
2023-04-29T11:10:43.850Z,2.13
2023-04-29T11:13:26.985Z,2.38
2023-04-29T11:16:04.161Z,2.40
2023-04-29T11:18:31.410Z,2.78
2023-04-29T11:21:08.698Z,2.80
2023-04-29T11:23:36.479Z,2.78
2023-04-29T11:26:04.248Z,3.10
2023-04-29T11:28:32.454Z,3.20
2023-04-29T11:30:59.936Z,3.05
2023-04-29T11:33:28.098Z,2.78
2023-04-29T11:35:55.590Z,3.60
2023-04-29T11:38:26.490Z,4.07
2023-04-29T11:40:55.590Z,4.57
2023-04-29T11:43:23.765Z,4.22
2023-04-29T11:45:51.727Z,4.05
2023-04-29T11:48:23.281Z,3.63
2023-04-29T11:50:52.374Z,3.88
2023-04-29T11:53:25.168Z,5.20
2023-04-29T11:55:55.933Z,3.80
2023-04-29T11:58:23.768Z,4.35
2023-04-29T12:00:51.955Z,4.72
2023-04-29T12:03:20.769Z,6.40
2023-04-29T12:05:48.783Z,4.60
2023-04-29T12:08:15.685Z,4.75
2023-04-29T12:10:42.579Z,5.82
2023-04-29T12:13:10.397Z,5.35
2023-04-29T12:15:40.092Z,7.38
2023-04-29T12:18:08.387Z,5.82
2023-04-29T12:20:35.646Z,5.60
2023-04-29T12:23:23.094Z,5.53
2023-04-29T12:25:55.017Z,5.75
2023-04-29T12:28:22.159Z,5.68
2023-04-29T12:30:50.415Z,5.22
2023-04-29T12:33:28.689Z,5.57
2023-04-29T12:35:57.546Z,4.90
2023-04-29T12:38:31.187Z,6.10
2023-04-29T12:41:05.510Z,5.57
2023-04-29T12:43:36.075Z,5.95
2023-04-29T12:46:04.925Z,5.75
2023-04-29T12:48:41.503Z,5.18
2023-04-29T12:51:10.489Z,5.68
2023-04-29T12:53:37.786Z,5.47
2023-04-29T12:56:06.032Z,5.07
2023-04-29T12:58:34.846Z,5.13
2023-04-29T13:01:01.802Z,5.80
2023-04-29T13:03:29.002Z,7.13
2023-04-29T13:05:56.106Z,6.80
2023-04-29T13:08:23.150Z,7.07
2023-04-29T13:10:50.198Z,7.03
2023-04-29T13:13:17.049Z,7.70
2023-04-29T13:15:44.176Z,5.90
2023-04-29T13:18:11.032Z,5.75
2023-04-29T13:20:41.419Z,7.75
2023-04-29T13:23:09.620Z,6.05
2023-04-29T13:25:36.456Z,6.45
2023-04-29T13:28:05.223Z,6.07
2023-04-29T13:30:32.161Z,9.45
2023-04-29T13:33:04.991Z,7.97
2023-04-29T13:35:40.060Z,7.57
2023-04-29T13:38:07.594Z,8.93
2023-04-29T13:40:38.801Z,7.13
2023-04-29T13:43:09.836Z,8.48
2023-04-29T13:45:42.419Z,9.02
2023-04-29T13:48:20.750Z,9.63
2023-04-29T13:56:46.423Z,9.40
2023-04-29T13:59:28.769Z,8.25
2023-04-29T14:02:13.245Z,8.10
2023-04-29T14:04:14.698Z,8.82
2023-04-29T14:06:43.894Z,9.40
2023-04-29T14:09:10.780Z,8.73
2023-04-29T14:11:37.685Z,8.20
2023-04-29T14:14:04.548Z,8.93
2023-04-29T14:16:32.288Z,9.23
2023-04-29T14:19:01.243Z,8.75
2023-04-29T14:23:57.536Z,8.65
2023-04-29T14:26:28.403Z,9.10
2023-04-29T14:28:59.827Z,8.75
2023-04-29T14:31:29.211Z,9.52
2023-04-29T14:33:57.360Z,8.50
2023-04-29T14:36:25.019Z,8.63
2023-04-29T14:38:52.451Z,8.13
2023-04-29T14:41:21.332Z,9.25
2023-04-29T14:43:48.182Z,9.20
2023-04-29T14:46:15.107Z,8.43
2023-04-29T14:48:41.966Z,7.78
2023-04-29T14:51:08.965Z,8.32
2023-04-29T14:53:35.888Z,8.15
2023-04-29T14:56:03.713Z,8.05
2023-04-29T14:58:30.901Z,8.88
2023-04-29T15:00:57.754Z,7.28
2023-04-29T15:03:24.720Z,8.35
2023-04-29T15:05:51.936Z,8.10
2023-04-29T15:08:19.473Z,8.02
2023-04-29T15:10:47.646Z,7.90
2023-04-29T15:13:14.988Z,8.50
2023-04-29T15:15:41.964Z,8.18
2023-04-29T15:18:09.180Z,7.53
2023-04-29T15:20:37.022Z,8.50
2023-04-29T15:23:05.740Z,7.95
2023-04-29T15:25:34.681Z,8.27
2023-04-29T15:28:03.908Z,7.80
2023-04-29T15:30:30.930Z,9.10
2023-04-29T15:32:57.978Z,9.55
2023-04-29T15:35:24.934Z,8.95
2023-04-29T15:37:51.731Z,7.55
2023-04-29T15:40:18.584Z,8.50
2023-04-29T15:42:45.456Z,9.23
2023-04-29T15:45:12.519Z,8.25
2023-04-29T15:47:39.431Z,8.77
2023-04-29T15:50:10.441Z,10.32
2023-04-29T15:52:37.246Z,9.02
2023-04-29T15:55:05.304Z,8.77
2023-04-29T15:57:32.387Z,8.73
2023-04-29T15:59:59.179Z,9.75
2023-04-29T16:02:26.076Z,9.70
2023-04-29T16:04:52.989Z,9.60
2023-04-29T16:07:19.793Z,9.57
2023-04-29T16:09:46.662Z,8.90
2023-04-29T16:12:14.097Z,9.80
2023-04-29T16:14:41.105Z,10.85
2023-04-29T16:17:08.038Z,9.93
2023-04-29T16:19:36.797Z,9.95
2023-04-29T16:22:04.483Z,10.65
2023-04-29T16:24:31.363Z,10.93
2023-04-29T16:26:58.948Z,11.70
2023-04-29T16:29:26.067Z,11.98
2023-04-29T16:31:53.090Z,10.95
2023-04-29T16:34:20.163Z,10.30
2023-04-29T16:36:47.117Z,11.23
2023-04-29T16:39:14.071Z,9.95
2023-04-29T16:41:41.143Z,11.30
2023-04-29T16:44:08.314Z,11.23
2023-04-29T16:46:35.410Z,10.25
2023-04-29T16:49:03.000Z,11.55
2023-04-29T16:51:29.867Z,9.02
2023-04-29T16:53:56.727Z,9.43
2023-04-29T16:56:23.671Z,9.85
2023-04-29T16:58:50.502Z,9.75
2023-04-29T17:01:19.763Z,8.02
2023-04-29T17:03:47.910Z,8.82
2023-04-29T17:06:16.102Z,9.40
2023-04-29T17:08:44.518Z,8.88
2023-04-29T17:11:11.520Z,10.10
2023-04-29T17:13:38.422Z,8.40
2023-04-29T17:16:06.337Z,10.43
2023-04-29T17:18:33.217Z,10.50
2023-04-29T17:21:00.022Z,9.35
2023-04-29T17:23:27.542Z,9.75
2023-04-29T17:25:55.468Z,8.65
2023-04-29T17:28:23.302Z,8.85
2023-04-29T17:30:50.418Z,9.80
2023-04-29T17:33:17.630Z,8.90
2023-04-29T17:35:45.334Z,9.40
2023-04-29T17:38:12.353Z,8.57
2023-04-29T17:40:39.360Z,8.80
2023-04-29T17:43:06.280Z,9.25
2023-04-29T17:45:33.318Z,8.30
2023-04-29T17:48:00.723Z,9.63
2023-04-29T17:50:27.828Z,9.25
2023-04-29T17:52:54.654Z,7.45
2023-04-29T17:55:21.700Z,7.63
2023-04-29T17:57:48.629Z,8.98
2023-04-29T18:00:15.810Z,8.27
2023-04-29T18:02:42.724Z,8.02
2023-04-29T18:05:09.818Z,9.27
2023-04-29T18:07:36.616Z,8.85
2023-04-29T18:10:04.845Z,8.18
2023-04-29T18:12:31.790Z,8.80
2023-04-29T18:14:58.579Z,8.73
2023-04-29T18:17:26.266Z,8.23
2023-04-29T18:19:53.405Z,9.07
2023-04-29T18:22:20.597Z,9.10
2023-04-29T18:24:48.414Z,8.48
2023-04-29T18:27:15.256Z,9.25
2023-04-29T18:29:42.032Z,8.05
2023-04-29T18:32:09.034Z,8.40
2023-04-29T18:34:35.966Z,7.45
2023-04-29T18:37:02.762Z,8.48
2023-04-29T18:39:29.665Z,7.55
2023-04-29T18:41:56.569Z,7.57
2023-04-29T18:44:23.682Z,6.93
2023-04-29T18:46:50.902Z,7.45
2023-04-29T18:49:18.117Z,7.50
2023-04-29T18:51:48.519Z,7.03
2023-04-29T18:54:17.597Z,6.78
2023-04-29T18:56:46.807Z,5.20
2023-04-29T18:59:19.079Z,6.35
2023-04-29T19:01:47.534Z,5.85
2023-04-29T19:04:15.141Z,6.30
2023-04-29T19:06:42.637Z,5.45
2023-04-29T19:09:11.166Z,5.50
2023-04-29T19:11:38.103Z,5.05
2023-04-29T19:14:04.995Z,4.10
2023-04-29T19:16:32.149Z,4.53
2023-04-29T19:18:59.783Z,3.65
2023-04-29T19:21:27.171Z,3.65
2023-04-29T19:23:54.052Z,3.85
2023-04-29T19:26:20.952Z,2.65
2023-04-29T19:28:47.742Z,3.38
2023-04-29T19:31:14.625Z,2.33
2023-04-29T19:33:41.675Z,2.35
2023-04-29T19:36:08.586Z,2.28
2023-04-29T19:38:35.426Z,2.05
2023-04-29T19:41:02.260Z,2.42
2023-04-29T19:43:29.091Z,1.90
2023-04-29T19:45:55.935Z,2.38
2023-04-29T19:48:22.857Z,2.58
2023-04-29T19:50:49.709Z,2.35
2023-04-29T19:53:16.941Z,2.33
2023-04-29T19:55:44.300Z,2.20
2023-04-29T19:58:11.289Z,3.22
2023-04-29T20:00:38.195Z,1.70
2023-04-29T20:03:05.096Z,2.00
2023-04-29T20:05:32.002Z,1.90
2023-04-29T20:07:58.871Z,2.03
2023-04-29T20:10:28.105Z,2.28
2023-04-29T20:12:56.811Z,2.20
2023-04-29T20:15:23.586Z,1.70
2023-04-29T20:17:50.839Z,2.10
2023-04-29T20:20:17.845Z,1.30
2023-04-29T20:22:44.678Z,1.23
2023-04-29T20:25:11.571Z,0.77
2023-04-29T20:27:38.572Z,2.17
2023-04-29T20:30:06.095Z,1.52
2023-04-29T20:32:32.875Z,1.67
2023-04-29T20:34:59.701Z,1.50
2023-04-29T20:37:26.652Z,1.40
2023-04-29T20:39:53.590Z,1.98
2023-04-29T20:42:20.648Z,1.80
2023-04-29T20:44:47.504Z,1.52
2023-04-29T20:47:14.452Z,1.90
2023-04-29T20:49:41.341Z,2.03
2023-04-29T20:52:08.139Z,1.85
2023-04-29T20:54:35.191Z,1.40
2023-04-29T20:57:05.428Z,1.60
2023-04-29T20:59:33.723Z,1.27
2023-04-29T21:02:00.784Z,1.20
2023-04-29T21:04:27.870Z,1.30
2023-04-29T21:06:54.722Z,1.00
2023-04-29T21:09:22.005Z,1.20
2023-04-29T21:11:48.875Z,0.70
2023-04-29T21:14:15.721Z,0.73
2023-04-29T21:16:42.818Z,0.98
2023-04-29T21:19:09.955Z,3.10
2023-04-29T21:21:36.739Z,0.90
2023-04-29T21:24:03.769Z,1.00
2023-04-29T21:26:30.865Z,0.98
2023-04-29T21:28:57.634Z,0.93
2023-04-29T21:31:24.466Z,1.10
2023-04-29T21:33:51.511Z,1.45
2023-04-29T21:36:18.331Z,1.35
2023-04-29T21:38:45.218Z,1.35
2023-04-29T21:41:23.126Z,0.85
2023-04-29T21:43:50.986Z,2.10
2023-04-29T21:46:18.484Z,1.20
2023-04-29T21:48:46.005Z,0.85
2023-04-29T21:51:13.028Z,0.77
2023-04-29T21:53:40.286Z,0.82
2023-04-29T21:56:07.449Z,0.65
2023-04-29T21:58:34.470Z,1.50
2023-04-29T22:01:03.508Z,0.73
2023-04-29T22:03:30.551Z,1.02
2023-04-29T22:05:57.961Z,0.65
2023-04-29T22:08:24.819Z,1.02
2023-04-29T22:10:52.955Z,0.80
2023-04-29T22:13:19.797Z,0.73
2023-04-29T22:15:46.589Z,0.73
2023-04-29T22:18:13.402Z,0.80
2023-04-29T22:20:40.302Z,0.90
2023-04-29T22:23:07.168Z,0.60
2023-04-29T22:25:34.061Z,1.15
2023-04-29T22:28:00.929Z,0.77
2023-04-29T22:30:27.811Z,0.88
2023-04-29T22:32:55.135Z,0.70
2023-04-29T22:35:22.191Z,1.15
2023-04-29T22:37:49.034Z,0.70
2023-04-29T22:40:15.899Z,1.30
2023-04-29T22:42:43.029Z,0.80
2023-04-29T22:45:11.330Z,1.13
2023-04-29T22:47:38.436Z,0.60
2023-04-29T22:50:06.113Z,0.70
2023-04-29T22:52:32.933Z,1.05
2023-04-29T22:55:00.005Z,1.52
2023-04-29T22:57:26.974Z,1.02
2023-04-29T22:59:57.453Z,0.80
2023-04-29T23:02:27.647Z,0.47
2023-04-29T23:04:59.069Z,1.05
2023-04-29T23:07:26.290Z,0.60
2023-04-29T23:09:53.356Z,0.47
2023-04-29T23:12:20.789Z,0.90
2023-04-29T23:14:47.612Z,0.40
2023-04-29T23:17:14.410Z,0.50
2023-04-29T23:19:41.163Z,1.02
2023-04-29T23:22:08.003Z,0.60
2023-04-29T23:24:35.599Z,0.80
2023-04-29T23:27:05.450Z,0.80
2023-04-29T23:29:35.312Z,0.80
2023-04-29T23:32:02.134Z,0.73
2023-04-29T23:34:29.036Z,0.90
2023-04-29T23:36:55.968Z,0.30
2023-04-29T23:39:22.861Z,1.25
2023-04-29T23:41:49.853Z,0.77
2023-04-29T23:44:16.620Z,0.82
2023-04-29T23:46:43.439Z,1.15
2023-04-29T23:49:10.546Z,0.95
2023-04-29T23:51:37.668Z,0.63
2023-04-29T23:54:04.511Z,0.77
2023-04-29T23:56:33.620Z,1.00
2023-04-29T23:59:00.684Z,0.88
